sensor_id;sensor_type;location;lat;lon;timestamp;P1;durP1;ratioP1;P2;durP2;ratioP2
65096;SDS011;51686;46.758;4.356;2023-06-24T00:02:44;3.80;;;1.75;;
65096;SDS011;51686;46.758;4.356;2023-06-24T00:05:32;4.65;;;1.92;;
65096;SDS011;51686;46.758;4.356;2023-06-24T00:08:19;4.93;;;2.00;;
65096;SDS011;51686;46.758;4.356;2023-06-24T00:11:09;3.85;;;1.90;;
65096;SDS011;51686;46.758;4.356;2023-06-24T00:13:56;4.72;;;2.10;;
65096;SDS011;51686;46.758;4.356;2023-06-24T00:16:43;4.63;;;2.17;;
65096;SDS011;51686;46.758;4.356;2023-06-24T00:19:30;5.88;;;1.90;;
65096;SDS011;51686;46.758;4.356;2023-06-24T00:22:18;4.20;;;1.85;;
65096;SDS011;51686;46.758;4.356;2023-06-24T00:25:05;3.35;;;1.85;;
65096;SDS011;51686;46.758;4.356;2023-06-24T00:27:52;4.72;;;2.00;;
65096;SDS011;51686;46.758;4.356;2023-06-24T00:30:39;3.65;;;1.88;;
65096;SDS011;51686;46.758;4.356;2023-06-24T00:33:26;5.10;;;2.00;;
65096;SDS011;51686;46.758;4.356;2023-06-24T00:36:13;4.28;;;1.98;;
65096;SDS011;51686;46.758;4.356;2023-06-24T00:39:00;5.70;;;2.30;;
65096;SDS011;51686;46.758;4.356;2023-06-24T00:41:50;3.65;;;1.80;;
65096;SDS011;51686;46.758;4.356;2023-06-24T00:44:37;5.32;;;2.10;;
65096;SDS011;51686;46.758;4.356;2023-06-24T00:47:24;4.57;;;1.98;;
65096;SDS011;51686;46.758;4.356;2023-06-24T00:50:11;4.65;;;1.90;;
65096;SDS011;51686;46.758;4.356;2023-06-24T00:53:01;5.05;;;2.13;;
65096;SDS011;51686;46.758;4.356;2023-06-24T00:55:48;5.30;;;2.00;;
65096;SDS011;51686;46.758;4.356;2023-06-24T00:58:34;4.35;;;2.00;;
65096;SDS011;51686;46.758;4.356;2023-06-24T01:01:23;4.18;;;1.80;;
65096;SDS011;51686;46.758;4.356;2023-06-24T01:04:10;4.38;;;1.90;;
65096;SDS011;51686;46.758;4.356;2023-06-24T01:06:57;4.35;;;2.10;;
65096;SDS011;51686;46.758;4.356;2023-06-24T01:09:44;4.45;;;1.98;;
65096;SDS011;51686;46.758;4.356;2023-06-24T01:12:35;4.60;;;2.10;;
65096;SDS011;51686;46.758;4.356;2023-06-24T01:15:26;4.72;;;2.28;;
65096;SDS011;51686;46.758;4.356;2023-06-24T01:21:09;3.90;;;1.85;;
65096;SDS011;51686;46.758;4.356;2023-06-24T01:24:23;5.30;;;2.17;;
65096;SDS011;51686;46.758;4.356;2023-06-24T01:33:24;4.63;;;2.00;;
65096;SDS011;51686;46.758;4.356;2023-06-24T01:36:15;4.05;;;1.98;;
65096;SDS011;51686;46.758;4.356;2023-06-24T01:41:57;4.70;;;2.10;;
65096;SDS011;51686;46.758;4.356;2023-06-24T01:44:47;3.97;;;1.90;;
65096;SDS011;51686;46.758;4.356;2023-06-24T01:47:35;4.70;;;2.08;;
65096;SDS011;51686;46.758;4.356;2023-06-24T01:50:23;4.50;;;2.03;;
65096;SDS011;51686;46.758;4.356;2023-06-24T01:53:11;4.28;;;2.03;;
65096;SDS011;51686;46.758;4.356;2023-06-24T01:56:00;4.40;;;2.00;;
65096;SDS011;51686;46.758;4.356;2023-06-24T01:58:50;5.53;;;2.20;;
65096;SDS011;51686;46.758;4.356;2023-06-24T02:01:37;5.35;;;2.10;;
65096;SDS011;51686;46.758;4.356;2023-06-24T02:04:25;5.40;;;1.90;;
65096;SDS011;51686;46.758;4.356;2023-06-24T02:07:17;5.15;;;2.20;;
65096;SDS011;51686;46.758;4.356;2023-06-24T02:10:05;5.20;;;2.30;;
65096;SDS011;51686;46.758;4.356;2023-06-24T02:12:54;6.00;;;2.22;;
65096;SDS011;51686;46.758;4.356;2023-06-24T02:15:42;4.90;;;2.08;;
65096;SDS011;51686;46.758;4.356;2023-06-24T02:18:30;5.18;;;2.20;;
65096;SDS011;51686;46.758;4.356;2023-06-24T02:21:17;5.80;;;2.40;;
65096;SDS011;51686;46.758;4.356;2023-06-24T02:24:05;5.20;;;2.10;;
65096;SDS011;51686;46.758;4.356;2023-06-24T02:26:52;4.90;;;2.03;;
65096;SDS011;51686;46.758;4.356;2023-06-24T02:29:40;5.03;;;2.10;;
65096;SDS011;51686;46.758;4.356;2023-06-24T02:32:27;5.40;;;2.35;;
65096;SDS011;51686;46.758;4.356;2023-06-24T02:35:14;4.88;;;1.92;;
65096;SDS011;51686;46.758;4.356;2023-06-24T02:38:01;5.18;;;2.17;;
65096;SDS011;51686;46.758;4.356;2023-06-24T02:40:49;5.78;;;2.30;;
65096;SDS011;51686;46.758;4.356;2023-06-24T02:43:37;5.10;;;2.20;;
65096;SDS011;51686;46.758;4.356;2023-06-24T02:46:24;5.28;;;2.20;;
65096;SDS011;51686;46.758;4.356;2023-06-24T02:49:12;4.85;;;2.20;;
65096;SDS011;51686;46.758;4.356;2023-06-24T02:52:00;5.80;;;2.20;;
65096;SDS011;51686;46.758;4.356;2023-06-24T02:54:47;4.88;;;2.20;;
65096;SDS011;51686;46.758;4.356;2023-06-24T02:57:35;5.38;;;2.00;;
65096;SDS011;51686;46.758;4.356;2023-06-24T03:00:23;4.90;;;2.15;;
65096;SDS011;51686;46.758;4.356;2023-06-24T03:03:10;5.00;;;2.30;;
65096;SDS011;51686;46.758;4.356;2023-06-24T03:05:57;5.22;;;2.20;;
65096;SDS011;51686;46.758;4.356;2023-06-24T03:08:48;4.97;;;2.00;;
65096;SDS011;51686;46.758;4.356;2023-06-24T03:11:42;4.63;;;2.33;;
65096;SDS011;51686;46.758;4.356;2023-06-24T03:14:29;5.15;;;2.17;;
65096;SDS011;51686;46.758;4.356;2023-06-24T03:17:16;5.88;;;2.35;;
65096;SDS011;51686;46.758;4.356;2023-06-24T03:20:03;4.35;;;1.90;;
65096;SDS011;51686;46.758;4.356;2023-06-24T03:22:51;5.25;;;2.10;;
65096;SDS011;51686;46.758;4.356;2023-06-24T03:25:39;5.55;;;2.28;;
65096;SDS011;51686;46.758;4.356;2023-06-24T03:28:26;5.53;;;2.40;;
65096;SDS011;51686;46.758;4.356;2023-06-24T03:31:13;5.80;;;2.47;;
65096;SDS011;51686;46.758;4.356;2023-06-24T03:34:02;4.15;;;2.10;;
65096;SDS011;51686;46.758;4.356;2023-06-24T03:36:49;5.15;;;2.20;;
65096;SDS011;51686;46.758;4.356;2023-06-24T03:39:36;4.93;;;2.10;;
65096;SDS011;51686;46.758;4.356;2023-06-24T03:42:23;5.55;;;2.20;;
65096;SDS011;51686;46.758;4.356;2023-06-24T03:45:10;5.35;;;2.42;;
65096;SDS011;51686;46.758;4.356;2023-06-24T03:47:57;4.45;;;2.10;;
65096;SDS011;51686;46.758;4.356;2023-06-24T03:50:44;5.93;;;2.60;;
65096;SDS011;51686;46.758;4.356;2023-06-24T03:53:31;5.20;;;2.22;;
65096;SDS011;51686;46.758;4.356;2023-06-24T03:56:19;5.35;;;2.35;;
65096;SDS011;51686;46.758;4.356;2023-06-24T03:59:06;5.30;;;2.28;;
65096;SDS011;51686;46.758;4.356;2023-06-24T04:01:54;5.72;;;2.28;;
65096;SDS011;51686;46.758;4.356;2023-06-24T04:04:42;4.40;;;2.05;;
65096;SDS011;51686;46.758;4.356;2023-06-24T04:07:37;5.78;;;2.55;;
65096;SDS011;51686;46.758;4.356;2023-06-24T04:10:25;4.10;;;2.20;;
65096;SDS011;51686;46.758;4.356;2023-06-24T04:13:12;4.65;;;2.10;;
65096;SDS011;51686;46.758;4.356;2023-06-24T04:15:58;5.32;;;2.30;;
65096;SDS011;51686;46.758;4.356;2023-06-24T04:18:50;5.50;;;2.50;;
65096;SDS011;51686;46.758;4.356;2023-06-24T04:21:37;5.60;;;2.10;;
65096;SDS011;51686;46.758;4.356;2023-06-24T04:24:24;4.78;;;2.40;;
65096;SDS011;51686;46.758;4.356;2023-06-24T04:27:11;5.50;;;2.35;;
65096;SDS011;51686;46.758;4.356;2023-06-24T04:29:58;5.78;;;2.40;;
65096;SDS011;51686;46.758;4.356;2023-06-24T04:32:45;5.85;;;2.20;;
65096;SDS011;51686;46.758;4.356;2023-06-24T04:35:32;4.07;;;2.10;;
65096;SDS011;51686;46.758;4.356;2023-06-24T04:38:19;5.35;;;2.35;;
65096;SDS011;51686;46.758;4.356;2023-06-24T04:41:06;5.38;;;2.33;;
65096;SDS011;51686;46.758;4.356;2023-06-24T04:43:53;6.88;;;2.67;;
65096;SDS011;51686;46.758;4.356;2023-06-24T04:46:40;4.03;;;1.95;;
65096;SDS011;51686;46.758;4.356;2023-06-24T04:49:27;5.28;;;2.20;;
65096;SDS011;51686;46.758;4.356;2023-06-24T04:52:14;5.28;;;2.30;;
65096;SDS011;51686;46.758;4.356;2023-06-24T04:55:01;5.72;;;2.30;;
65096;SDS011;51686;46.758;4.356;2023-06-24T04:57:48;5.85;;;2.67;;
65096;SDS011;51686;46.758;4.356;2023-06-24T05:00:35;5.15;;;2.40;;
65096;SDS011;51686;46.758;4.356;2023-06-24T05:03:22;5.75;;;2.72;;
65096;SDS011;51686;46.758;4.356;2023-06-24T05:06:10;5.47;;;2.60;;
65096;SDS011;51686;46.758;4.356;2023-06-24T05:08:57;5.93;;;2.35;;
65096;SDS011;51686;46.758;4.356;2023-06-24T05:11:44;6.30;;;2.40;;
65096;SDS011;51686;46.758;4.356;2023-06-24T05:14:31;5.93;;;2.55;;
65096;SDS011;51686;46.758;4.356;2023-06-24T05:17:18;6.28;;;2.72;;
65096;SDS011;51686;46.758;4.356;2023-06-24T05:20:06;6.43;;;2.60;;
65096;SDS011;51686;46.758;4.356;2023-06-24T05:22:54;5.93;;;2.90;;
65096;SDS011;51686;46.758;4.356;2023-06-24T05:25:41;5.80;;;2.53;;
65096;SDS011;51686;46.758;4.356;2023-06-24T05:28:28;5.80;;;2.60;;
65096;SDS011;51686;46.758;4.356;2023-06-24T05:31:15;5.85;;;2.55;;
65096;SDS011;51686;46.758;4.356;2023-06-24T05:34:02;6.28;;;2.78;;
65096;SDS011;51686;46.758;4.356;2023-06-24T05:36:49;6.03;;;2.47;;
65096;SDS011;51686;46.758;4.356;2023-06-24T05:39:36;5.75;;;2.50;;
65096;SDS011;51686;46.758;4.356;2023-06-24T05:42:23;6.07;;;2.40;;
65096;SDS011;51686;46.758;4.356;2023-06-24T05:45:12;5.90;;;2.40;;
65096;SDS011;51686;46.758;4.356;2023-06-24T05:47:59;5.68;;;2.38;;
65096;SDS011;51686;46.758;4.356;2023-06-24T05:50:46;6.10;;;2.50;;
65096;SDS011;51686;46.758;4.356;2023-06-24T05:53:33;5.63;;;2.35;;
65096;SDS011;51686;46.758;4.356;2023-06-24T05:56:27;5.40;;;2.53;;
65096;SDS011;51686;46.758;4.356;2023-06-24T05:59:16;5.32;;;2.20;;
65096;SDS011;51686;46.758;4.356;2023-06-24T06:02:03;5.68;;;2.60;;
65096;SDS011;51686;46.758;4.356;2023-06-24T06:04:52;6.32;;;2.38;;
65096;SDS011;51686;46.758;4.356;2023-06-24T06:07:39;5.05;;;2.30;;
65096;SDS011;51686;46.758;4.356;2023-06-24T06:10:27;5.47;;;2.28;;
65096;SDS011;51686;46.758;4.356;2023-06-24T06:13:14;6.03;;;2.50;;
65096;SDS011;51686;46.758;4.356;2023-06-24T06:16:01;5.93;;;2.30;;
65096;SDS011;51686;46.758;4.356;2023-06-24T06:18:48;6.38;;;2.53;;
65096;SDS011;51686;46.758;4.356;2023-06-24T06:21:36;6.63;;;2.50;;
65096;SDS011;51686;46.758;4.356;2023-06-24T06:24:23;6.93;;;2.72;;
65096;SDS011;51686;46.758;4.356;2023-06-24T06:27:10;6.45;;;2.85;;
65096;SDS011;51686;46.758;4.356;2023-06-24T06:29:58;6.93;;;2.92;;
65096;SDS011;51686;46.758;4.356;2023-06-24T06:32:45;7.07;;;3.30;;
65096;SDS011;51686;46.758;4.356;2023-06-24T06:35:32;7.43;;;3.33;;
65096;SDS011;51686;46.758;4.356;2023-06-24T06:38:19;7.80;;;3.30;;
65096;SDS011;51686;46.758;4.356;2023-06-24T06:41:06;7.00;;;3.17;;
65096;SDS011;51686;46.758;4.356;2023-06-24T06:43:53;7.28;;;3.10;;
65096;SDS011;51686;46.758;4.356;2023-06-24T06:46:40;6.82;;;2.80;;
65096;SDS011;51686;46.758;4.356;2023-06-24T06:49:27;7.30;;;3.00;;
65096;SDS011;51686;46.758;4.356;2023-06-24T06:52:14;6.95;;;3.30;;
65096;SDS011;51686;46.758;4.356;2023-06-24T06:55:03;7.80;;;3.50;;
65096;SDS011;51686;46.758;4.356;2023-06-24T06:57:50;7.75;;;3.47;;
65096;SDS011;51686;46.758;4.356;2023-06-24T07:00:37;7.10;;;3.28;;
65096;SDS011;51686;46.758;4.356;2023-06-24T07:03:24;6.88;;;2.90;;
65096;SDS011;51686;46.758;4.356;2023-06-24T07:06:12;7.07;;;3.08;;
65096;SDS011;51686;46.758;4.356;2023-06-24T07:08:58;7.93;;;3.35;;
65096;SDS011;51686;46.758;4.356;2023-06-24T07:11:45;6.88;;;2.95;;
65096;SDS011;51686;46.758;4.356;2023-06-24T07:14:32;6.90;;;2.90;;
65096;SDS011;51686;46.758;4.356;2023-06-24T07:17:19;7.65;;;3.13;;
65096;SDS011;51686;46.758;4.356;2023-06-24T07:20:06;7.70;;;3.15;;
65096;SDS011;51686;46.758;4.356;2023-06-24T07:22:53;6.78;;;2.95;;
65096;SDS011;51686;46.758;4.356;2023-06-24T07:25:40;6.13;;;2.67;;
65096;SDS011;51686;46.758;4.356;2023-06-24T07:28:27;6.32;;;2.85;;
65096;SDS011;51686;46.758;4.356;2023-06-24T07:31:14;6.63;;;2.92;;
65096;SDS011;51686;46.758;4.356;2023-06-24T07:34:01;6.10;;;2.70;;
65096;SDS011;51686;46.758;4.356;2023-06-24T07:36:48;7.10;;;2.80;;
65096;SDS011;51686;46.758;4.356;2023-06-24T07:39:37;6.38;;;2.78;;
65096;SDS011;51686;46.758;4.356;2023-06-24T07:42:24;7.18;;;2.97;;
65096;SDS011;51686;46.758;4.356;2023-06-24T07:45:11;5.93;;;2.45;;
65096;SDS011;51686;46.758;4.356;2023-06-24T07:47:57;6.47;;;2.70;;
65096;SDS011;51686;46.758;4.356;2023-06-24T07:50:46;6.53;;;2.42;;
65096;SDS011;51686;46.758;4.356;2023-06-24T07:53:33;5.83;;;2.50;;
65096;SDS011;51686;46.758;4.356;2023-06-24T07:56:20;6.25;;;2.60;;
65096;SDS011;51686;46.758;4.356;2023-06-24T07:59:07;6.03;;;2.75;;
65096;SDS011;51686;46.758;4.356;2023-06-24T08:01:54;6.28;;;2.80;;
65096;SDS011;51686;46.758;4.356;2023-06-24T08:04:40;6.07;;;2.50;;
65096;SDS011;51686;46.758;4.356;2023-06-24T08:07:28;6.60;;;2.83;;
65096;SDS011;51686;46.758;4.356;2023-06-24T08:10:15;6.07;;;2.67;;
65096;SDS011;51686;46.758;4.356;2023-06-24T08:13:01;6.65;;;2.85;;
65096;SDS011;51686;46.758;4.356;2023-06-24T08:15:48;5.57;;;2.45;;
65096;SDS011;51686;46.758;4.356;2023-06-24T08:18:35;6.45;;;2.88;;
65096;SDS011;51686;46.758;4.356;2023-06-24T08:21:22;6.00;;;2.40;;
65096;SDS011;51686;46.758;4.356;2023-06-24T08:24:09;5.93;;;2.67;;
65096;SDS011;51686;46.758;4.356;2023-06-24T08:26:56;5.75;;;2.65;;
65096;SDS011;51686;46.758;4.356;2023-06-24T08:29:43;6.82;;;2.72;;
65096;SDS011;51686;46.758;4.356;2023-06-24T08:32:30;6.43;;;2.67;;
65096;SDS011;51686;46.758;4.356;2023-06-24T08:35:17;6.18;;;2.60;;
65096;SDS011;51686;46.758;4.356;2023-06-24T08:38:04;5.63;;;2.42;;
65096;SDS011;51686;46.758;4.356;2023-06-24T08:40:50;5.60;;;2.53;;
65096;SDS011;51686;46.758;4.356;2023-06-24T08:43:38;6.07;;;2.43;;
65096;SDS011;51686;46.758;4.356;2023-06-24T08:46:26;6.65;;;2.60;;
65096;SDS011;51686;46.758;4.356;2023-06-24T08:49:20;6.47;;;2.60;;
65096;SDS011;51686;46.758;4.356;2023-06-24T08:52:15;5.63;;;2.47;;
65096;SDS011;51686;46.758;4.356;2023-06-24T08:55:02;5.70;;;2.40;;
65096;SDS011;51686;46.758;4.356;2023-06-24T09:00:38;5.63;;;2.50;;
65096;SDS011;51686;46.758;4.356;2023-06-24T09:03:25;5.55;;;2.40;;
65096;SDS011;51686;46.758;4.356;2023-06-24T09:06:12;6.47;;;2.55;;
65096;SDS011;51686;46.758;4.356;2023-06-24T09:08:59;5.82;;;2.30;;
65096;SDS011;51686;46.758;4.356;2023-06-24T09:11:59;4.30;;;2.00;;
65096;SDS011;51686;46.758;4.356;2023-06-24T09:14:50;6.60;;;2.70;;
65096;SDS011;51686;46.758;4.356;2023-06-24T09:17:44;5.18;;;2.10;;
65096;SDS011;51686;46.758;4.356;2023-06-24T09:20:32;5.90;;;2.40;;
65096;SDS011;51686;46.758;4.356;2023-06-24T09:23:25;5.60;;;2.22;;
65096;SDS011;51686;46.758;4.356;2023-06-24T09:26:15;5.70;;;2.50;;
65096;SDS011;51686;46.758;4.356;2023-06-24T09:29:03;5.67;;;2.60;;
65096;SDS011;51686;46.758;4.356;2023-06-24T09:31:50;7.07;;;2.70;;
65096;SDS011;51686;46.758;4.356;2023-06-24T09:34:43;5.78;;;2.55;;
65096;SDS011;51686;46.758;4.356;2023-06-24T09:37:30;6.03;;;2.40;;
65096;SDS011;51686;46.758;4.356;2023-06-24T09:40:19;6.20;;;2.55;;
65096;SDS011;51686;46.758;4.356;2023-06-24T09:43:06;5.70;;;2.40;;
65096;SDS011;51686;46.758;4.356;2023-06-24T09:45:55;5.25;;;2.30;;
65096;SDS011;51686;46.758;4.356;2023-06-24T09:48:44;5.60;;;2.13;;
65096;SDS011;51686;46.758;4.356;2023-06-24T09:51:32;5.88;;;2.35;;
65096;SDS011;51686;46.758;4.356;2023-06-24T09:54:26;5.25;;;1.92;;
65096;SDS011;51686;46.758;4.356;2023-06-24T09:57:22;4.32;;;1.92;;
65096;SDS011;51686;46.758;4.356;2023-06-24T10:00:13;4.95;;;2.13;;
65096;SDS011;51686;46.758;4.356;2023-06-24T10:03:01;4.97;;;2.17;;
65096;SDS011;51686;46.758;4.356;2023-06-24T10:05:49;5.32;;;2.25;;
65096;SDS011;51686;46.758;4.356;2023-06-24T10:08:36;5.10;;;2.40;;
65096;SDS011;51686;46.758;4.356;2023-06-24T10:11:23;5.38;;;2.17;;
65096;SDS011;51686;46.758;4.356;2023-06-24T10:14:10;5.82;;;2.42;;
65096;SDS011;51686;46.758;4.356;2023-06-24T10:17:01;6.50;;;2.45;;
65096;SDS011;51686;46.758;4.356;2023-06-24T10:19:51;5.80;;;2.40;;
65096;SDS011;51686;46.758;4.356;2023-06-24T10:22:40;6.63;;;2.40;;
65096;SDS011;51686;46.758;4.356;2023-06-24T10:25:35;5.03;;;2.03;;
65096;SDS011;51686;46.758;4.356;2023-06-24T10:28:23;5.97;;;2.60;;
65096;SDS011;51686;46.758;4.356;2023-06-24T10:31:10;6.55;;;2.63;;
65096;SDS011;51686;46.758;4.356;2023-06-24T10:33:58;6.32;;;2.60;;
65096;SDS011;51686;46.758;4.356;2023-06-24T10:36:58;6.18;;;2.30;;
65096;SDS011;51686;46.758;4.356;2023-06-24T10:39:52;6.18;;;2.40;;
65096;SDS011;51686;46.758;4.356;2023-06-24T10:45:31;4.40;;;2.17;;
65096;SDS011;51686;46.758;4.356;2023-06-24T10:48:17;5.65;;;2.20;;
65096;SDS011;51686;46.758;4.356;2023-06-24T10:51:07;6.03;;;2.17;;
65096;SDS011;51686;46.758;4.356;2023-06-24T10:53:54;5.00;;;2.33;;
65096;SDS011;51686;46.758;4.356;2023-06-24T10:56:41;5.78;;;2.30;;
65096;SDS011;51686;46.758;4.356;2023-06-24T10:59:40;5.05;;;2.08;;
65096;SDS011;51686;46.758;4.356;2023-06-24T11:02:29;5.35;;;2.20;;
65096;SDS011;51686;46.758;4.356;2023-06-24T11:05:16;5.60;;;2.40;;
65096;SDS011;51686;46.758;4.356;2023-06-24T11:08:06;5.07;;;2.10;;
65096;SDS011;51686;46.758;4.356;2023-06-24T11:10:59;4.85;;;2.00;;
65096;SDS011;51686;46.758;4.356;2023-06-24T11:13:51;4.97;;;2.00;;
65096;SDS011;51686;46.758;4.356;2023-06-24T11:16:40;4.53;;;1.90;;
65096;SDS011;51686;46.758;4.356;2023-06-24T11:19:30;5.35;;;2.20;;
65096;SDS011;51686;46.758;4.356;2023-06-24T11:22:19;4.82;;;2.15;;
65096;SDS011;51686;46.758;4.356;2023-06-24T11:25:14;5.97;;;2.20;;
65096;SDS011;51686;46.758;4.356;2023-06-24T11:28:04;5.32;;;2.08;;
65096;SDS011;51686;46.758;4.356;2023-06-24T11:30:54;5.00;;;2.10;;
65096;SDS011;51686;46.758;4.356;2023-06-24T11:33:48;5.28;;;2.20;;
65096;SDS011;51686;46.758;4.356;2023-06-24T11:36:38;5.15;;;2.13;;
65096;SDS011;51686;46.758;4.356;2023-06-24T11:39:27;5.22;;;2.20;;
65096;SDS011;51686;46.758;4.356;2023-06-24T11:42:16;5.03;;;2.38;;
65096;SDS011;51686;46.758;4.356;2023-06-24T11:45:03;5.30;;;2.22;;
65096;SDS011;51686;46.758;4.356;2023-06-24T11:48:00;6.18;;;2.28;;
65096;SDS011;51686;46.758;4.356;2023-06-24T11:50:55;4.75;;;2.00;;
65096;SDS011;51686;46.758;4.356;2023-06-24T11:53:45;5.60;;;2.30;;
65096;SDS011;51686;46.758;4.356;2023-06-24T11:56:39;4.85;;;2.10;;
65096;SDS011;51686;46.758;4.356;2023-06-24T11:59:29;4.07;;;1.85;;
65096;SDS011;51686;46.758;4.356;2023-06-24T12:02:16;4.93;;;2.03;;
65096;SDS011;51686;46.758;4.356;2023-06-24T12:05:03;5.60;;;2.20;;
65096;SDS011;51686;46.758;4.356;2023-06-24T12:07:50;5.60;;;2.15;;
65096;SDS011;51686;46.758;4.356;2023-06-24T12:10:37;5.03;;;2.00;;
65096;SDS011;51686;46.758;4.356;2023-06-24T12:13:25;5.72;;;2.05;;
65096;SDS011;51686;46.758;4.356;2023-06-24T12:16:12;5.65;;;2.20;;
65096;SDS011;51686;46.758;4.356;2023-06-24T12:19:00;5.25;;;2.20;;
65096;SDS011;51686;46.758;4.356;2023-06-24T12:21:47;5.05;;;2.17;;
65096;SDS011;51686;46.758;4.356;2023-06-24T12:24:34;5.40;;;2.13;;
65096;SDS011;51686;46.758;4.356;2023-06-24T12:27:21;4.10;;;2.00;;
65096;SDS011;51686;46.758;4.356;2023-06-24T12:30:08;5.57;;;2.25;;
65096;SDS011;51686;46.758;4.356;2023-06-24T12:32:56;4.88;;;2.08;;
65096;SDS011;51686;46.758;4.356;2023-06-24T12:35:43;5.30;;;2.25;;
65096;SDS011;51686;46.758;4.356;2023-06-24T12:38:30;4.18;;;2.10;;
65096;SDS011;51686;46.758;4.356;2023-06-24T12:41:17;5.80;;;2.20;;
65096;SDS011;51686;46.758;4.356;2023-06-24T12:44:04;5.33;;;2.10;;
65096;SDS011;51686;46.758;4.356;2023-06-24T12:46:51;4.88;;;2.13;;
65096;SDS011;51686;46.758;4.356;2023-06-24T12:49:38;4.80;;;1.95;;
65096;SDS011;51686;46.758;4.356;2023-06-24T12:52:25;5.43;;;2.22;;
65096;SDS011;51686;46.758;4.356;2023-06-24T12:55:12;6.40;;;2.33;;
65096;SDS011;51686;46.758;4.356;2023-06-24T12:58:02;4.28;;;1.77;;
65096;SDS011;51686;46.758;4.356;2023-06-24T13:00:49;4.85;;;2.10;;
65096;SDS011;51686;46.758;4.356;2023-06-24T13:03:36;5.38;;;2.15;;
65096;SDS011;51686;46.758;4.356;2023-06-24T13:06:24;5.10;;;2.10;;
65096;SDS011;51686;46.758;4.356;2023-06-24T13:09:11;4.88;;;2.00;;
65096;SDS011;51686;46.758;4.356;2023-06-24T13:11:58;5.55;;;2.00;;
65096;SDS011;51686;46.758;4.356;2023-06-24T13:14:45;4.20;;;1.77;;
65096;SDS011;51686;46.758;4.356;2023-06-24T13:17:32;5.15;;;2.05;;
65096;SDS011;51686;46.758;4.356;2023-06-24T13:20:19;5.72;;;2.05;;
65096;SDS011;51686;46.758;4.356;2023-06-24T13:23:06;4.43;;;1.92;;
65096;SDS011;51686;46.758;4.356;2023-06-24T13:25:53;5.40;;;2.35;;
65096;SDS011;51686;46.758;4.356;2023-06-24T13:28:39;4.85;;;2.13;;
65096;SDS011;51686;46.758;4.356;2023-06-24T13:31:27;5.03;;;2.10;;
65096;SDS011;51686;46.758;4.356;2023-06-24T13:34:19;4.93;;;2.05;;
65096;SDS011;51686;46.758;4.356;2023-06-24T13:37:06;5.47;;;2.00;;
65096;SDS011;51686;46.758;4.356;2023-06-24T13:39:54;4.60;;;2.00;;
65096;SDS011;51686;46.758;4.356;2023-06-24T13:42:44;4.97;;;1.92;;
65096;SDS011;51686;46.758;4.356;2023-06-24T13:45:34;5.35;;;2.13;;
65096;SDS011;51686;46.758;4.356;2023-06-24T13:48:21;5.22;;;2.15;;
65096;SDS011;51686;46.758;4.356;2023-06-24T13:51:07;6.05;;;2.40;;
65096;SDS011;51686;46.758;4.356;2023-06-24T13:53:55;5.93;;;2.40;;
65096;SDS011;51686;46.758;4.356;2023-06-24T13:56:42;5.15;;;1.95;;
65096;SDS011;51686;46.758;4.356;2023-06-24T13:59:34;5.60;;;2.20;;
65096;SDS011;51686;46.758;4.356;2023-06-24T14:02:24;5.03;;;2.08;;
65096;SDS011;51686;46.758;4.356;2023-06-24T14:05:11;4.45;;;2.05;;
65096;SDS011;51686;46.758;4.356;2023-06-24T14:07:58;4.10;;;1.85;;
65096;SDS011;51686;46.758;4.356;2023-06-24T14:10:45;5.68;;;2.25;;
65096;SDS011;51686;46.758;4.356;2023-06-24T14:13:32;5.93;;;2.50;;
65096;SDS011;51686;46.758;4.356;2023-06-24T14:16:19;6.05;;;2.28;;
65096;SDS011;51686;46.758;4.356;2023-06-24T14:19:06;6.80;;;2.65;;
65096;SDS011;51686;46.758;4.356;2023-06-24T14:21:54;5.05;;;2.10;;
65096;SDS011;51686;46.758;4.356;2023-06-24T14:24:41;5.57;;;2.35;;
65096;SDS011;51686;46.758;4.356;2023-06-24T14:27:27;5.82;;;2.28;;
65096;SDS011;51686;46.758;4.356;2023-06-24T14:30:14;6.32;;;2.20;;
65096;SDS011;51686;46.758;4.356;2023-06-24T14:33:01;13.20;;;3.35;;
65096;SDS011;51686;46.758;4.356;2023-06-24T14:35:48;10.32;;;3.40;;
65096;SDS011;51686;46.758;4.356;2023-06-24T14:38:35;8.43;;;2.53;;
65096;SDS011;51686;46.758;4.356;2023-06-24T14:41:22;8.02;;;2.58;;
65096;SDS011;51686;46.758;4.356;2023-06-24T14:44:09;5.90;;;2.17;;
65096;SDS011;51686;46.758;4.356;2023-06-24T14:46:56;6.15;;;2.38;;
65096;SDS011;51686;46.758;4.356;2023-06-24T14:49:43;5.68;;;2.30;;
65096;SDS011;51686;46.758;4.356;2023-06-24T14:52:33;6.85;;;2.75;;
65096;SDS011;51686;46.758;4.356;2023-06-24T14:55:20;6.05;;;2.35;;
65096;SDS011;51686;46.758;4.356;2023-06-24T14:58:07;5.53;;;2.22;;
65096;SDS011;51686;46.758;4.356;2023-06-24T15:00:54;5.80;;;2.33;;
65096;SDS011;51686;46.758;4.356;2023-06-24T15:03:41;4.60;;;2.05;;
65096;SDS011;51686;46.758;4.356;2023-06-24T15:06:28;6.00;;;2.60;;
65096;SDS011;51686;46.758;4.356;2023-06-24T15:09:15;5.38;;;2.28;;
65096;SDS011;51686;46.758;4.356;2023-06-24T15:12:02;6.22;;;2.70;;
65096;SDS011;51686;46.758;4.356;2023-06-24T15:14:49;5.03;;;2.25;;
65096;SDS011;51686;46.758;4.356;2023-06-24T15:17:36;6.22;;;2.50;;
65096;SDS011;51686;46.758;4.356;2023-06-24T15:20:26;5.78;;;2.60;;
65096;SDS011;51686;46.758;4.356;2023-06-24T15:23:13;5.90;;;2.42;;
65096;SDS011;51686;46.758;4.356;2023-06-24T15:26:00;5.57;;;2.53;;
65096;SDS011;51686;46.758;4.356;2023-06-24T15:28:47;6.88;;;2.75;;
65096;SDS011;51686;46.758;4.356;2023-06-24T15:31:34;6.70;;;2.77;;
65096;SDS011;51686;46.758;4.356;2023-06-24T15:34:21;6.28;;;2.60;;
65096;SDS011;51686;46.758;4.356;2023-06-24T15:37:08;6.00;;;2.65;;
65096;SDS011;51686;46.758;4.356;2023-06-24T15:39:55;6.90;;;2.85;;
65096;SDS011;51686;46.758;4.356;2023-06-24T15:42:42;6.45;;;2.67;;
65096;SDS011;51686;46.758;4.356;2023-06-24T15:45:29;7.63;;;3.30;;
65096;SDS011;51686;46.758;4.356;2023-06-24T15:48:16;7.47;;;2.85;;
65096;SDS011;51686;46.758;4.356;2023-06-24T15:51:04;6.85;;;2.60;;
65096;SDS011;51686;46.758;4.356;2023-06-24T15:53:51;7.50;;;3.13;;
65096;SDS011;51686;46.758;4.356;2023-06-24T15:56:38;6.78;;;2.90;;
65096;SDS011;51686;46.758;4.356;2023-06-24T15:59:25;6.72;;;2.78;;
65096;SDS011;51686;46.758;4.356;2023-06-24T16:02:12;6.50;;;3.03;;
65096;SDS011;51686;46.758;4.356;2023-06-24T16:04:59;7.38;;;3.10;;
65096;SDS011;51686;46.758;4.356;2023-06-24T16:07:51;6.93;;;3.10;;
65096;SDS011;51686;46.758;4.356;2023-06-24T16:10:38;7.28;;;3.15;;
65096;SDS011;51686;46.758;4.356;2023-06-24T16:13:27;7.10;;;3.25;;
65096;SDS011;51686;46.758;4.356;2023-06-24T16:16:14;6.68;;;3.00;;
65096;SDS011;51686;46.758;4.356;2023-06-24T16:19:00;7.65;;;3.30;;
65096;SDS011;51686;46.758;4.356;2023-06-24T16:21:47;8.85;;;3.75;;
65096;SDS011;51686;46.758;4.356;2023-06-24T16:24:34;7.82;;;2.97;;
65096;SDS011;51686;46.758;4.356;2023-06-24T16:27:21;6.45;;;2.95;;
65096;SDS011;51686;46.758;4.356;2023-06-24T16:30:08;7.03;;;3.05;;
65096;SDS011;51686;46.758;4.356;2023-06-24T16:32:55;6.63;;;3.08;;
65096;SDS011;51686;46.758;4.356;2023-06-24T16:35:42;7.40;;;3.05;;
65096;SDS011;51686;46.758;4.356;2023-06-24T16:38:29;6.88;;;3.20;;
65096;SDS011;51686;46.758;4.356;2023-06-24T16:41:16;6.88;;;3.05;;
65096;SDS011;51686;46.758;4.356;2023-06-24T16:44:03;7.50;;;3.30;;
65096;SDS011;51686;46.758;4.356;2023-06-24T16:46:50;7.03;;;3.33;;
65096;SDS011;51686;46.758;4.356;2023-06-24T16:49:37;7.45;;;3.25;;
65096;SDS011;51686;46.758;4.356;2023-06-24T16:52:23;6.25;;;2.88;;
65096;SDS011;51686;46.758;4.356;2023-06-24T16:55:11;7.90;;;3.00;;
65096;SDS011;51686;46.758;4.356;2023-06-24T16:58:00;7.20;;;3.10;;
65096;SDS011;51686;46.758;4.356;2023-06-24T17:00:47;7.07;;;3.20;;
65096;SDS011;51686;46.758;4.356;2023-06-24T17:03:34;7.03;;;3.25;;
65096;SDS011;51686;46.758;4.356;2023-06-24T17:06:21;7.50;;;3.30;;
65096;SDS011;51686;46.758;4.356;2023-06-24T17:09:08;7.68;;;3.53;;
65096;SDS011;51686;46.758;4.356;2023-06-24T17:11:54;7.63;;;3.58;;